ケープタウン の空港の天気 - METARとTAF

ケープタウン国際空港 ( FACT / CPT ) - 南アフリカ ケープタウン
飛行場実況気象(Metar)
観測時間09/28 02:00 SAST (09/28 00:00 UTC)
風向・風速不定 1m/s
視程10km以上
天気現象
なし
気温11℃
湿度94%
気圧1021hPa
METARFACT 280000Z VRB01KT CAVOK 11/10 Q1021 NOSIG
過去の天気等 Google飛行場航空写真 Wunderground天気予報

過去48時間のMETAR

飛行場予報(TAF)
発表時間: 9/28 00:00 SAST (9/27 22:00 UTC)
予報対象時間: 28日2時 SAST ~ 29日8時 SAST
風向・風速南 4m/s
視程10km以上
なし
28日2時 SAST ~ 28日7時 SAST に 確率 30% で一時的に
視程4000m
天気現象もや
なし
28日9時 SAST から
風向・風速南 4m/s
視程10km以上
なし
TAF FACT 272200Z 2800/2906 18008KT CAVOK TX21/2812Z TN09/2804Z
PROB30 TEMPO 2800/2805 4000 BR NSC
FM280700 18008KT CAVOK